sensor_id;sensor_type;location;lat;lon;timestamp;P1;durP1;ratioP1;P2;durP2;ratioP2
21814;SDS011;11069;48.988;8.450;2023-04-24T00:01:21;1.80;;;1.10;;
21814;SDS011;11069;48.988;8.450;2023-04-24T00:03:47;1.63;;;1.40;;
21814;SDS011;11069;48.988;8.450;2023-04-24T00:06:12;4.65;;;1.85;;
21814;SDS011;11069;48.988;8.450;2023-04-24T00:08:38;4.70;;;1.45;;
21814;SDS011;11069;48.988;8.450;2023-04-24T00:11:03;3.17;;;1.35;;
21814;SDS011;11069;48.988;8.450;2023-04-24T00:13:29;2.25;;;1.17;;
21814;SDS011;11069;48.988;8.450;2023-04-24T00:15:55;4.32;;;1.50;;
21814;SDS011;11069;48.988;8.450;2023-04-24T00:18:21;1.75;;;1.30;;
21814;SDS011;11069;48.988;8.450;2023-04-24T00:20:47;1.45;;;1.35;;
21814;SDS011;11069;48.988;8.450;2023-04-24T00:23:12;1.88;;;1.35;;
21814;SDS011;11069;48.988;8.450;2023-04-24T00:25:38;3.70;;;1.40;;
21814;SDS011;11069;48.988;8.450;2023-04-24T00:28:04;1.30;;;1.10;;
21814;SDS011;11069;48.988;8.450;2023-04-24T00:30:30;4.10;;;1.50;;
21814;SDS011;11069;48.988;8.450;2023-04-24T00:32:56;2.97;;;1.50;;
21814;SDS011;11069;48.988;8.450;2023-04-24T00:35:22;1.67;;;1.10;;
21814;SDS011;11069;48.988;8.450;2023-04-24T00:37:48;2.72;;;1.30;;
21814;SDS011;11069;48.988;8.450;2023-04-24T00:40:15;1.50;;;1.40;;
21814;SDS011;11069;48.988;8.450;2023-04-24T00:42:40;1.90;;;1.15;;
21814;SDS011;11069;48.988;8.450;2023-04-24T00:45:06;1.50;;;1.00;;
21814;SDS011;11069;48.988;8.450;2023-04-24T00:47:33;1.70;;;1.10;;
21814;SDS011;11069;48.988;8.450;2023-04-24T00:50:00;1.25;;;0.90;;
21814;SDS011;11069;48.988;8.450;2023-04-24T00:52:27;2.13;;;1.10;;
21814;SDS011;11069;48.988;8.450;2023-04-24T00:54:56;2.22;;;1.15;;
21814;SDS011;11069;48.988;8.450;2023-04-24T00:57:21;1.88;;;1.20;;
21814;SDS011;11069;48.988;8.450;2023-04-24T00:59:48;2.00;;;1.10;;
21814;SDS011;11069;48.988;8.450;2023-04-24T01:02:14;1.55;;;1.05;;
21814;SDS011;11069;48.988;8.450;2023-04-24T01:04:40;2.45;;;1.33;;
21814;SDS011;11069;48.988;8.450;2023-04-24T01:07:06;1.73;;;1.10;;
21814;SDS011;11069;48.988;8.450;2023-04-24T01:09:35;1.40;;;1.15;;
21814;SDS011;11069;48.988;8.450;2023-04-24T01:12:06;2.70;;;1.05;;
21814;SDS011;11069;48.988;8.450;2023-04-24T01:14:32;1.73;;;1.05;;
21814;SDS011;11069;48.988;8.450;2023-04-24T01:16:58;2.78;;;1.10;;
21814;SDS011;11069;48.988;8.450;2023-04-24T01:19:24;3.85;;;1.30;;
21814;SDS011;11069;48.988;8.450;2023-04-24T01:21:50;2.45;;;1.17;;
21814;SDS011;11069;48.988;8.450;2023-04-24T01:24:21;1.90;;;1.10;;
21814;SDS011;11069;48.988;8.450;2023-04-24T01:26:47;2.90;;;1.15;;
21814;SDS011;11069;48.988;8.450;2023-04-24T01:29:12;2.95;;;1.13;;
21814;SDS011;11069;48.988;8.450;2023-04-24T01:31:39;2.53;;;1.00;;
21814;SDS011;11069;48.988;8.450;2023-04-24T01:34:05;1.65;;;1.15;;
21814;SDS011;11069;48.988;8.450;2023-04-24T01:36:32;1.67;;;1.00;;
21814;SDS011;11069;48.988;8.450;2023-04-24T01:39:00;1.85;;;1.15;;
21814;SDS011;11069;48.988;8.450;2023-04-24T01:41:25;2.22;;;1.23;;
21814;SDS011;11069;48.988;8.450;2023-04-24T01:43:51;2.13;;;0.90;;
21814;SDS011;11069;48.988;8.450;2023-04-24T01:46:17;1.20;;;1.00;;
21814;SDS011;11069;48.988;8.450;2023-04-24T01:48:44;2.35;;;1.13;;
21814;SDS011;11069;48.988;8.450;2023-04-24T01:51:10;2.70;;;1.27;;
21814;SDS011;11069;48.988;8.450;2023-04-24T01:53:36;2.38;;;1.27;;
21814;SDS011;11069;48.988;8.450;2023-04-24T01:56:01;4.90;;;1.23;;
21814;SDS011;11069;48.988;8.450;2023-04-24T01:58:27;2.05;;;1.20;;
21814;SDS011;11069;48.988;8.450;2023-04-24T02:00:55;2.45;;;1.23;;
21814;SDS011;11069;48.988;8.450;2023-04-24T02:03:22;2.25;;;1.00;;
21814;SDS011;11069;48.988;8.450;2023-04-24T02:05:47;1.42;;;1.10;;
21814;SDS011;11069;48.988;8.450;2023-04-24T02:08:13;1.30;;;1.00;;
21814;SDS011;11069;48.988;8.450;2023-04-24T02:10:38;1.35;;;0.90;;
21814;SDS011;11069;48.988;8.450;2023-04-24T02:13:04;1.05;;;0.93;;
21814;SDS011;11069;48.988;8.450;2023-04-24T02:15:29;1.77;;;0.90;;
21814;SDS011;11069;48.988;8.450;2023-04-24T02:17:55;3.05;;;1.40;;
21814;SDS011;11069;48.988;8.450;2023-04-24T02:20:21;2.05;;;1.40;;
21814;SDS011;11069;48.988;8.450;2023-04-24T02:22:46;1.15;;;0.90;;
21814;SDS011;11069;48.988;8.450;2023-04-24T02:25:12;2.30;;;1.33;;
21814;SDS011;11069;48.988;8.450;2023-04-24T02:27:38;2.10;;;1.00;;
21814;SDS011;11069;48.988;8.450;2023-04-24T02:30:04;3.35;;;1.33;;
21814;SDS011;11069;48.988;8.450;2023-04-24T02:32:30;2.30;;;1.27;;
21814;SDS011;11069;48.988;8.450;2023-04-24T02:34:55;1.90;;;1.23;;
21814;SDS011;11069;48.988;8.450;2023-04-24T02:37:21;2.38;;;1.33;;
21814;SDS011;11069;48.988;8.450;2023-04-24T02:39:47;2.40;;;1.15;;
21814;SDS011;11069;48.988;8.450;2023-04-24T02:42:12;1.70;;;1.10;;
21814;SDS011;11069;48.988;8.450;2023-04-24T02:44:38;2.08;;;1.05;;
21814;SDS011;11069;48.988;8.450;2023-04-24T02:47:03;1.48;;;1.00;;
21814;SDS011;11069;48.988;8.450;2023-04-24T02:49:29;1.38;;;0.90;;
21814;SDS011;11069;48.988;8.450;2023-04-24T02:51:55;1.27;;;1.00;;
21814;SDS011;11069;48.988;8.450;2023-04-24T02:54:20;2.05;;;1.20;;
21814;SDS011;11069;48.988;8.450;2023-04-24T02:56:46;1.90;;;0.98;;
21814;SDS011;11069;48.988;8.450;2023-04-24T02:59:11;1.67;;;1.08;;
21814;SDS011;11069;48.988;8.450;2023-04-24T03:01:37;1.88;;;1.20;;
21814;SDS011;11069;48.988;8.450;2023-04-24T03:04:02;2.40;;;1.30;;
21814;SDS011;11069;48.988;8.450;2023-04-24T03:06:28;3.05;;;1.30;;
21814;SDS011;11069;48.988;8.450;2023-04-24T03:08:56;2.13;;;1.00;;
21814;SDS011;11069;48.988;8.450;2023-04-24T03:11:21;3.88;;;1.40;;
21814;SDS011;11069;48.988;8.450;2023-04-24T03:13:47;2.35;;;1.33;;
21814;SDS011;11069;48.988;8.450;2023-04-24T03:16:12;2.42;;;1.25;;
21814;SDS011;11069;48.988;8.450;2023-04-24T03:18:38;1.48;;;1.17;;
21814;SDS011;11069;48.988;8.450;2023-04-24T03:21:03;1.33;;;1.20;;
21814;SDS011;11069;48.988;8.450;2023-04-24T03:23:29;4.15;;;1.95;;
21814;SDS011;11069;48.988;8.450;2023-04-24T03:25:55;2.15;;;1.10;;
21814;SDS011;11069;48.988;8.450;2023-04-24T03:28:20;2.40;;;1.50;;
21814;SDS011;11069;48.988;8.450;2023-04-24T03:30:46;2.50;;;1.40;;
21814;SDS011;11069;48.988;8.450;2023-04-24T03:33:11;1.67;;;1.27;;
21814;SDS011;11069;48.988;8.450;2023-04-24T03:35:37;1.73;;;1.50;;
21814;SDS011;11069;48.988;8.450;2023-04-24T03:38:02;2.92;;;1.70;;
21814;SDS011;11069;48.988;8.450;2023-04-24T03:40:31;2.83;;;1.80;;
21814;SDS011;11069;48.988;8.450;2023-04-24T03:43:02;4.07;;;2.05;;
21814;SDS011;11069;48.988;8.450;2023-04-24T03:45:28;3.40;;;2.05;;
21814;SDS011;11069;48.988;8.450;2023-04-24T03:47:54;5.28;;;2.03;;
21814;SDS011;11069;48.988;8.450;2023-04-24T03:50:19;2.45;;;2.05;;
21814;SDS011;11069;48.988;8.450;2023-04-24T03:52:45;3.08;;;2.22;;
21814;SDS011;11069;48.988;8.450;2023-04-24T03:55:10;3.70;;;2.63;;
21814;SDS011;11069;48.988;8.450;2023-04-24T03:57:37;4.75;;;2.40;;
21814;SDS011;11069;48.988;8.450;2023-04-24T04:00:04;2.78;;;2.25;;
21814;SDS011;11069;48.988;8.450;2023-04-24T04:02:31;2.47;;;2.20;;
21814;SDS011;11069;48.988;8.450;2023-04-24T04:04:56;3.92;;;2.55;;
21814;SDS011;11069;48.988;8.450;2023-04-24T04:07:22;5.47;;;2.72;;
21814;SDS011;11069;48.988;8.450;2023-04-24T04:09:47;4.03;;;2.65;;
21814;SDS011;11069;48.988;8.450;2023-04-24T04:12:13;2.72;;;2.30;;
21814;SDS011;11069;48.988;8.450;2023-04-24T04:14:38;5.80;;;2.50;;
21814;SDS011;11069;48.988;8.450;2023-04-24T04:17:04;2.67;;;2.20;;
21814;SDS011;11069;48.988;8.450;2023-04-24T04:19:33;4.38;;;2.40;;
21814;SDS011;11069;48.988;8.450;2023-04-24T04:21:59;2.80;;;2.35;;
21814;SDS011;11069;48.988;8.450;2023-04-24T04:24:24;3.10;;;2.30;;
21814;SDS011;11069;48.988;8.450;2023-04-24T04:26:51;3.47;;;2.45;;
21814;SDS011;11069;48.988;8.450;2023-04-24T04:29:17;6.28;;;2.53;;
21814;SDS011;11069;48.988;8.450;2023-04-24T04:31:45;5.22;;;2.50;;
21814;SDS011;11069;48.988;8.450;2023-04-24T04:34:11;3.13;;;2.47;;
21814;SDS011;11069;48.988;8.450;2023-04-24T04:36:37;2.72;;;2.42;;
21814;SDS011;11069;48.988;8.450;2023-04-24T04:39:04;2.83;;;2.60;;
21814;SDS011;11069;48.988;8.450;2023-04-24T04:41:30;3.17;;;2.10;;
21814;SDS011;11069;48.988;8.450;2023-04-24T04:43:56;2.58;;;2.38;;
21814;SDS011;11069;48.988;8.450;2023-04-24T04:46:23;2.70;;;2.50;;
21814;SDS011;11069;48.988;8.450;2023-04-24T04:48:51;3.88;;;2.65;;
21814;SDS011;11069;48.988;8.450;2023-04-24T04:51:26;2.45;;;2.25;;
21814;SDS011;11069;48.988;8.450;2023-04-24T04:53:52;3.05;;;2.63;;
21814;SDS011;11069;48.988;8.450;2023-04-24T04:56:18;3.28;;;2.95;;
21814;SDS011;11069;48.988;8.450;2023-04-24T04:58:44;3.35;;;2.95;;
21814;SDS011;11069;48.988;8.450;2023-04-24T05:01:09;5.15;;;3.30;;
21814;SDS011;11069;48.988;8.450;2023-04-24T05:03:35;4.22;;;3.00;;
21814;SDS011;11069;48.988;8.450;2023-04-24T05:06:01;5.93;;;3.45;;
21814;SDS011;11069;48.988;8.450;2023-04-24T05:08:27;4.07;;;3.15;;
21814;SDS011;11069;48.988;8.450;2023-04-24T05:10:53;3.47;;;3.17;;
21814;SDS011;11069;48.988;8.450;2023-04-24T05:13:20;3.60;;;3.30;;
21814;SDS011;11069;48.988;8.450;2023-04-24T05:15:45;4.20;;;3.20;;
21814;SDS011;11069;48.988;8.450;2023-04-24T05:18:11;3.92;;;3.50;;
21814;SDS011;11069;48.988;8.450;2023-04-24T05:20:36;4.68;;;3.33;;
21814;SDS011;11069;48.988;8.450;2023-04-24T05:23:02;3.83;;;3.50;;
21814;SDS011;11069;48.988;8.450;2023-04-24T05:25:28;4.38;;;3.50;;
21814;SDS011;11069;48.988;8.450;2023-04-24T05:28:14;3.20;;;2.97;;
21814;SDS011;11069;48.988;8.450;2023-04-24T05:30:40;3.15;;;2.85;;
21814;SDS011;11069;48.988;8.450;2023-04-24T05:33:06;3.55;;;3.03;;
21814;SDS011;11069;48.988;8.450;2023-04-24T05:35:33;3.88;;;3.10;;
21814;SDS011;11069;48.988;8.450;2023-04-24T05:37:59;3.75;;;2.80;;
21814;SDS011;11069;48.988;8.450;2023-04-24T05:40:24;3.38;;;2.90;;
21814;SDS011;11069;48.988;8.450;2023-04-24T05:42:50;3.55;;;3.10;;
21814;SDS011;11069;48.988;8.450;2023-04-24T05:45:15;3.05;;;2.65;;
21814;SDS011;11069;48.988;8.450;2023-04-24T05:47:42;4.70;;;2.85;;
21814;SDS011;11069;48.988;8.450;2023-04-24T05:50:09;3.90;;;2.90;;
21814;SDS011;11069;48.988;8.450;2023-04-24T05:52:35;3.22;;;2.70;;
21814;SDS011;11069;48.988;8.450;2023-04-24T05:55:01;3.70;;;2.58;;
21814;SDS011;11069;48.988;8.450;2023-04-24T05:57:26;3.83;;;2.60;;
21814;SDS011;11069;48.988;8.450;2023-04-24T05:59:52;3.50;;;2.40;;
21814;SDS011;11069;48.988;8.450;2023-04-24T06:02:17;2.53;;;2.13;;
21814;SDS011;11069;48.988;8.450;2023-04-24T06:04:43;3.10;;;2.10;;
21814;SDS011;11069;48.988;8.450;2023-04-24T06:07:10;2.53;;;2.33;;
21814;SDS011;11069;48.988;8.450;2023-04-24T06:09:36;2.78;;;2.33;;
21814;SDS011;11069;48.988;8.450;2023-04-24T06:12:02;2.70;;;2.30;;
21814;SDS011;11069;48.988;8.450;2023-04-24T06:14:27;3.15;;;2.20;;
21814;SDS011;11069;48.988;8.450;2023-04-24T06:16:53;3.65;;;2.08;;
21814;SDS011;11069;48.988;8.450;2023-04-24T06:19:19;2.42;;;2.22;;
21814;SDS011;11069;48.988;8.450;2023-04-24T06:21:44;3.17;;;2.20;;
21814;SDS011;11069;48.988;8.450;2023-04-24T06:24:10;2.75;;;2.13;;
21814;SDS011;11069;48.988;8.450;2023-04-24T06:26:36;3.20;;;2.30;;
21814;SDS011;11069;48.988;8.450;2023-04-24T06:29:02;2.75;;;2.25;;
21814;SDS011;11069;48.988;8.450;2023-04-24T06:31:27;2.63;;;2.42;;
21814;SDS011;11069;48.988;8.450;2023-04-24T06:33:53;2.90;;;2.20;;
21814;SDS011;11069;48.988;8.450;2023-04-24T06:36:19;5.03;;;2.63;;
21814;SDS011;11069;48.988;8.450;2023-04-24T06:38:44;2.40;;;2.20;;
21814;SDS011;11069;48.988;8.450;2023-04-24T06:41:10;3.90;;;2.40;;
21814;SDS011;11069;48.988;8.450;2023-04-24T06:43:36;2.63;;;2.10;;
21814;SDS011;11069;48.988;8.450;2023-04-24T06:46:01;2.80;;;2.30;;
21814;SDS011;11069;48.988;8.450;2023-04-24T06:48:28;4.05;;;2.20;;
21814;SDS011;11069;48.988;8.450;2023-04-24T06:50:54;2.72;;;2.30;;
21814;SDS011;11069;48.988;8.450;2023-04-24T06:53:20;3.80;;;2.38;;
21814;SDS011;11069;48.988;8.450;2023-04-24T06:55:45;2.72;;;1.95;;
21814;SDS011;11069;48.988;8.450;2023-04-24T06:58:11;3.45;;;2.20;;
21814;SDS011;11069;48.988;8.450;2023-04-24T07:00:40;4.07;;;1.98;;
21814;SDS011;11069;48.988;8.450;2023-04-24T07:03:08;3.35;;;2.10;;
21814;SDS011;11069;48.988;8.450;2023-04-24T07:05:34;4.15;;;2.22;;
21814;SDS011;11069;48.988;8.450;2023-04-24T07:08:02;2.75;;;2.05;;
21814;SDS011;11069;48.988;8.450;2023-04-24T07:10:28;2.08;;;1.88;;
21814;SDS011;11069;48.988;8.450;2023-04-24T07:12:54;3.03;;;2.10;;
21814;SDS011;11069;48.988;8.450;2023-04-24T07:15:21;3.38;;;2.30;;
21814;SDS011;11069;48.988;8.450;2023-04-24T07:17:48;2.10;;;1.90;;
21814;SDS011;11069;48.988;8.450;2023-04-24T07:20:14;2.67;;;1.70;;
21814;SDS011;11069;48.988;8.450;2023-04-24T07:22:40;3.47;;;1.83;;
21814;SDS011;11069;48.988;8.450;2023-04-24T07:25:06;2.90;;;2.13;;
21814;SDS011;11069;48.988;8.450;2023-04-24T07:27:32;3.75;;;2.47;;
21814;SDS011;11069;48.988;8.450;2023-04-24T07:29:58;2.45;;;2.10;;
21814;SDS011;11069;48.988;8.450;2023-04-24T07:32:24;3.05;;;2.10;;
21814;SDS011;11069;48.988;8.450;2023-04-24T07:34:50;3.00;;;2.10;;
21814;SDS011;11069;48.988;8.450;2023-04-24T07:37:15;2.10;;;1.90;;
21814;SDS011;11069;48.988;8.450;2023-04-24T07:39:41;2.70;;;1.88;;
21814;SDS011;11069;48.988;8.450;2023-04-24T07:42:07;1.75;;;1.65;;
21814;SDS011;11069;48.988;8.450;2023-04-24T07:44:32;2.67;;;1.50;;
21814;SDS011;11069;48.988;8.450;2023-04-24T07:46:58;2.03;;;1.67;;
21814;SDS011;11069;48.988;8.450;2023-04-24T07:49:24;1.88;;;1.77;;
21814;SDS011;11069;48.988;8.450;2023-04-24T07:51:50;2.10;;;1.45;;
21814;SDS011;11069;48.988;8.450;2023-04-24T07:54:15;2.75;;;1.70;;
21814;SDS011;11069;48.988;8.450;2023-04-24T07:56:41;2.80;;;1.33;;
21814;SDS011;11069;48.988;8.450;2023-04-24T07:59:08;2.47;;;1.50;;
21814;SDS011;11069;48.988;8.450;2023-04-24T08:01:35;2.70;;;1.38;;
21814;SDS011;11069;48.988;8.450;2023-04-24T08:04:00;2.08;;;1.60;;
21814;SDS011;11069;48.988;8.450;2023-04-24T08:06:26;2.95;;;1.52;;
21814;SDS011;11069;48.988;8.450;2023-04-24T08:08:57;1.90;;;1.63;;
21814;SDS011;11069;48.988;8.450;2023-04-24T08:11:23;3.15;;;2.00;;
21814;SDS011;11069;48.988;8.450;2023-04-24T08:13:49;3.33;;;2.10;;
21814;SDS011;11069;48.988;8.450;2023-04-24T08:16:15;3.50;;;2.10;;
21814;SDS011;11069;48.988;8.450;2023-04-24T08:18:40;1.55;;;1.45;;
21814;SDS011;11069;48.988;8.450;2023-04-24T08:21:06;2.00;;;1.80;;
21814;SDS011;11069;48.988;8.450;2023-04-24T08:23:31;3.08;;;1.80;;
21814;SDS011;11069;48.988;8.450;2023-04-24T08:25:57;2.65;;;1.55;;
21814;SDS011;11069;48.988;8.450;2023-04-24T08:28:23;2.20;;;1.50;;
21814;SDS011;11069;48.988;8.450;2023-04-24T08:30:48;3.38;;;1.30;;
21814;SDS011;11069;48.988;8.450;2023-04-24T08:33:19;2.60;;;1.80;;
21814;SDS011;11069;48.988;8.450;2023-04-24T08:35:45;2.95;;;1.80;;
21814;SDS011;11069;48.988;8.450;2023-04-24T08:38:11;2.58;;;1.73;;
21814;SDS011;11069;48.988;8.450;2023-04-24T08:40:36;2.20;;;1.98;;
21814;SDS011;11069;48.988;8.450;2023-04-24T08:43:03;1.85;;;1.75;;
21814;SDS011;11069;48.988;8.450;2023-04-24T08:45:32;2.85;;;1.92;;
21814;SDS011;11069;48.988;8.450;2023-04-24T08:47:58;2.10;;;1.90;;
21814;SDS011;11069;48.988;8.450;2023-04-24T08:50:25;2.28;;;1.85;;
21814;SDS011;11069;48.988;8.450;2023-04-24T08:52:54;4.10;;;1.80;;
21814;SDS011;11069;48.988;8.450;2023-04-24T08:55:22;2.22;;;1.83;;
21814;SDS011;11069;48.988;8.450;2023-04-24T08:57:58;4.47;;;2.00;;
21814;SDS011;11069;48.988;8.450;2023-04-24T09:00:24;1.60;;;1.50;;
21814;SDS011;11069;48.988;8.450;2023-04-24T09:02:52;4.05;;;1.60;;
21814;SDS011;11069;48.988;8.450;2023-04-24T09:05:18;3.30;;;1.58;;
21814;SDS011;11069;48.988;8.450;2023-04-24T09:07:49;2.75;;;1.60;;
21814;SDS011;11069;48.988;8.450;2023-04-24T09:10:18;2.10;;;1.40;;
21814;SDS011;11069;48.988;8.450;2023-04-24T09:12:44;3.22;;;1.38;;
21814;SDS011;11069;48.988;8.450;2023-04-24T09:15:11;3.28;;;1.70;;
21814;SDS011;11069;48.988;8.450;2023-04-24T09:17:37;2.40;;;1.60;;
21814;SDS011;11069;48.988;8.450;2023-04-24T09:20:03;3.28;;;1.63;;
21814;SDS011;11069;48.988;8.450;2023-04-24T09:22:30;2.85;;;1.80;;
21814;SDS011;11069;48.988;8.450;2023-04-24T09:25:06;3.35;;;1.92;;
21814;SDS011;11069;48.988;8.450;2023-04-24T09:27:33;2.78;;;1.95;;
21814;SDS011;11069;48.988;8.450;2023-04-24T09:29:59;3.53;;;1.92;;
21814;SDS011;11069;48.988;8.450;2023-04-24T09:32:26;2.05;;;1.52;;
21814;SDS011;11069;48.988;8.450;2023-04-24T09:35:06;2.50;;;1.58;;
21814;SDS011;11069;48.988;8.450;2023-04-24T09:37:38;3.92;;;2.00;;
21814;SDS011;11069;48.988;8.450;2023-04-24T09:40:18;4.40;;;2.40;;
21814;SDS011;11069;48.988;8.450;2023-04-24T09:42:52;2.88;;;2.30;;
21814;SDS011;11069;48.988;8.450;2023-04-24T09:45:18;4.95;;;2.47;;
21814;SDS011;11069;48.988;8.450;2023-04-24T09:47:51;3.65;;;2.40;;
21814;SDS011;11069;48.988;8.450;2023-04-24T09:50:20;3.00;;;2.33;;
21814;SDS011;11069;48.988;8.450;2023-04-24T09:52:47;6.07;;;2.53;;
21814;SDS011;11069;48.988;8.450;2023-04-24T09:55:26;2.97;;;2.72;;
21814;SDS011;11069;48.988;8.450;2023-04-24T09:57:56;3.00;;;2.53;;
21814;SDS011;11069;48.988;8.450;2023-04-24T10:00:24;3.60;;;2.60;;
21814;SDS011;11069;48.988;8.450;2023-04-24T10:02:55;2.63;;;2.40;;
21814;SDS011;11069;48.988;8.450;2023-04-24T10:05:24;3.75;;;2.50;;
21814;SDS011;11069;48.988;8.450;2023-04-24T10:08:02;2.30;;;1.92;;
21814;SDS011;11069;48.988;8.450;2023-04-24T10:10:33;4.00;;;2.00;;
21814;SDS011;11069;48.988;8.450;2023-04-24T10:13:00;3.65;;;2.33;;
21814;SDS011;11069;48.988;8.450;2023-04-24T10:15:26;2.40;;;1.90;;
21814;SDS011;11069;48.988;8.450;2023-04-24T10:17:52;3.17;;;1.83;;
21814;SDS011;11069;48.988;8.450;2023-04-24T10:20:22;1.92;;;1.70;;
21814;SDS011;11069;48.988;8.450;2023-04-24T10:22:50;2.28;;;1.95;;
21814;SDS011;11069;48.988;8.450;2023-04-24T10:25:20;2.97;;;2.00;;
21814;SDS011;11069;48.988;8.450;2023-04-24T10:27:48;4.43;;;2.00;;
21814;SDS011;11069;48.988;8.450;2023-04-24T10:30:15;4.85;;;2.20;;
21814;SDS011;11069;48.988;8.450;2023-04-24T10:32:41;2.72;;;2.20;;
21814;SDS011;11069;48.988;8.450;2023-04-24T10:35:07;5.47;;;2.67;;
21814;SDS011;11069;48.988;8.450;2023-04-24T10:37:38;3.75;;;2.42;;
21814;SDS011;11069;48.988;8.450;2023-04-24T10:40:07;5.65;;;3.10;;
21814;SDS011;11069;48.988;8.450;2023-04-24T10:42:34;2.83;;;2.28;;
21814;SDS011;11069;48.988;8.450;2023-04-24T10:45:04;4.30;;;2.40;;
21814;SDS011;11069;48.988;8.450;2023-04-24T10:47:41;3.25;;;2.80;;
21814;SDS011;11069;48.988;8.450;2023-04-24T10:50:08;4.40;;;2.40;;
21814;SDS011;11069;48.988;8.450;2023-04-24T10:52:47;3.47;;;2.78;;
21814;SDS011;11069;48.988;8.450;2023-04-24T10:55:16;4.22;;;2.67;;
21814;SDS011;11069;48.988;8.450;2023-04-24T10:58:04;2.80;;;2.55;;
21814;SDS011;11069;48.988;8.450;2023-04-24T11:00:30;4.90;;;2.65;;
21814;SDS011;11069;48.988;8.450;2023-04-24T11:02:56;3.53;;;2.35;;
21814;SDS011;11069;48.988;8.450;2023-04-24T11:05:22;2.95;;;2.65;;
21814;SDS011;11069;48.988;8.450;2023-04-24T11:08:25;3.20;;;2.60;;
21814;SDS011;11069;48.988;8.450;2023-04-24T11:10:56;3.45;;;2.70;;
21814;SDS011;11069;48.988;8.450;2023-04-24T11:19:09;2.80;;;2.58;;
21814;SDS011;11069;48.988;8.450;2023-04-24T11:21:48;3.78;;;3.00;;
21814;SDS011;11069;48.988;8.450;2023-04-24T11:24:30;3.38;;;2.95;;
21814;SDS011;11069;48.988;8.450;2023-04-24T11:27:15;4.05;;;3.13;;
21814;SDS011;11069;48.988;8.450;2023-04-24T11:35:08;5.63;;;4.40;;
21814;SDS011;11069;48.988;8.450;2023-04-24T11:37:44;5.22;;;4.72;;
21814;SDS011;11069;48.988;8.450;2023-04-24T11:40:12;5.85;;;5.30;;
21814;SDS011;11069;48.988;8.450;2023-04-24T11:42:43;7.88;;;5.38;;
21814;SDS011;11069;48.988;8.450;2023-04-24T11:45:10;5.68;;;5.10;;
21814;SDS011;11069;48.988;8.450;2023-04-24T11:47:37;7.53;;;5.43;;
21814;SDS011;11069;48.988;8.450;2023-04-24T11:50:04;6.05;;;5.47;;
21814;SDS011;11069;48.988;8.450;2023-04-24T11:52:33;8.02;;;5.63;;
21814;SDS011;11069;48.988;8.450;2023-04-24T11:55:03;8.20;;;5.70;;
21814;SDS011;11069;48.988;8.450;2023-04-24T11:57:29;6.85;;;5.80;;
21814;SDS011;11069;48.988;8.450;2023-04-24T11:59:59;9.90;;;6.33;;
21814;SDS011;11069;48.988;8.450;2023-04-24T12:02:26;7.38;;;6.68;;
21814;SDS011;11069;48.988;8.450;2023-04-24T12:04:52;10.95;;;6.90;;
21814;SDS011;11069;48.988;8.450;2023-04-24T12:07:19;9.77;;;7.20;;
21814;SDS011;11069;48.988;8.450;2023-04-24T12:12:14;8.40;;;6.55;;
21814;SDS011;11069;48.988;8.450;2023-04-24T12:14:47;11.15;;;5.32;;
21814;SDS011;11069;48.988;8.450;2023-04-24T12:17:30;4.78;;;4.00;;
21814;SDS011;11069;48.988;8.450;2023-04-24T12:20:00;5.50;;;4.18;;
21814;SDS011;11069;48.988;8.450;2023-04-24T12:22:42;7.55;;;3.70;;
21814;SDS011;11069;48.988;8.450;2023-04-24T12:25:09;5.72;;;3.78;;
21814;SDS011;11069;48.988;8.450;2023-04-24T12:27:35;5.38;;;4.05;;
21814;SDS011;11069;48.988;8.450;2023-04-24T12:30:02;5.78;;;3.75;;
21814;SDS011;11069;48.988;8.450;2023-04-24T12:32:29;4.43;;;3.63;;
21814;SDS011;11069;48.988;8.450;2023-04-24T12:34:55;3.90;;;3.50;;
21814;SDS011;11069;48.988;8.450;2023-04-24T12:37:25;5.93;;;3.28;;
21814;SDS011;11069;48.988;8.450;2023-04-24T12:40:01;3.97;;;3.60;;
21814;SDS011;11069;48.988;8.450;2023-04-24T12:42:34;4.55;;;3.60;;
21814;SDS011;11069;48.988;8.450;2023-04-24T12:45:04;4.25;;;3.25;;
21814;SDS011;11069;48.988;8.450;2023-04-24T12:47:31;5.40;;;4.10;;
21814;SDS011;11069;48.988;8.450;2023-04-24T12:49:58;4.25;;;3.63;;
21814;SDS011;11069;48.988;8.450;2023-04-24T12:52:25;6.22;;;3.90;;
21814;SDS011;11069;48.988;8.450;2023-04-24T12:54:55;4.95;;;3.17;;
21814;SDS011;11069;48.988;8.450;2023-04-24T12:57:22;3.63;;;3.17;;
21814;SDS011;11069;48.988;8.450;2023-04-24T12:59:49;5.20;;;3.25;;
21814;SDS011;11069;48.988;8.450;2023-04-24T13:02:15;4.93;;;3.28;;
21814;SDS011;11069;48.988;8.450;2023-04-24T13:04:43;3.35;;;3.05;;
21814;SDS011;11069;48.988;8.450;2023-04-24T13:07:13;4.30;;;3.30;;
21814;SDS011;11069;48.988;8.450;2023-04-24T13:09:39;3.80;;;3.13;;
21814;SDS011;11069;48.988;8.450;2023-04-24T13:12:09;6.32;;;3.90;;
21814;SDS011;11069;48.988;8.450;2023-04-24T13:14:36;5.45;;;4.00;;
21814;SDS011;11069;48.988;8.450;2023-04-24T13:17:03;4.68;;;3.90;;
21814;SDS011;11069;48.988;8.450;2023-04-24T13:19:29;5.10;;;3.47;;
21814;SDS011;11069;48.988;8.450;2023-04-24T13:21:55;3.92;;;3.35;;
21814;SDS011;11069;48.988;8.450;2023-04-24T13:24:25;4.50;;;3.22;;
21814;SDS011;11069;48.988;8.450;2023-04-24T13:26:51;3.25;;;2.95;;
21814;SDS011;11069;48.988;8.450;2023-04-24T13:29:21;3.25;;;2.80;;
21814;SDS011;11069;48.988;8.450;2023-04-24T13:31:49;2.70;;;2.50;;
21814;SDS011;11069;48.988;8.450;2023-04-24T13:34:16;3.42;;;2.65;;
21814;SDS011;11069;48.988;8.450;2023-04-24T13:36:42;5.22;;;2.60;;
21814;SDS011;11069;48.988;8.450;2023-04-24T13:39:08;3.42;;;2.50;;
21814;SDS011;11069;48.988;8.450;2023-04-24T13:41:34;5.40;;;2.95;;
21814;SDS011;11069;48.988;8.450;2023-04-24T13:44:00;4.22;;;3.00;;
21814;SDS011;11069;48.988;8.450;2023-04-24T13:46:26;3.58;;;2.47;;
21814;SDS011;11069;48.988;8.450;2023-04-24T13:48:51;3.67;;;2.90;;
21814;SDS011;11069;48.988;8.450;2023-04-24T13:51:17;3.58;;;2.53;;
21814;SDS011;11069;48.988;8.450;2023-04-24T13:53:43;3.17;;;2.88;;
21814;SDS011;11069;48.988;8.450;2023-04-24T13:56:08;4.63;;;3.28;;
21814;SDS011;11069;48.988;8.450;2023-04-24T13:58:34;7.00;;;3.53;;
21814;SDS011;11069;48.988;8.450;2023-04-24T14:01:02;3.88;;;2.95;;
21814;SDS011;11069;48.988;8.450;2023-04-24T14:03:28;4.03;;;2.65;;
21814;SDS011;11069;48.988;8.450;2023-04-24T14:05:53;3.95;;;2.53;;
21814;SDS011;11069;48.988;8.450;2023-04-24T14:08:19;3.28;;;2.33;;
21814;SDS011;11069;48.988;8.450;2023-04-24T14:10:45;2.70;;;2.40;;
21814;SDS011;11069;48.988;8.450;2023-04-24T14:13:10;2.85;;;2.30;;
21814;SDS011;11069;48.988;8.450;2023-04-24T14:15:36;3.15;;;2.75;;
21814;SDS011;11069;48.988;8.450;2023-04-24T14:18:02;4.13;;;3.05;;
21814;SDS011;11069;48.988;8.450;2023-04-24T14:20:28;4.97;;;2.83;;
21814;SDS011;11069;48.988;8.450;2023-04-24T14:22:54;4.43;;;2.67;;
21814;SDS011;11069;48.988;8.450;2023-04-24T14:25:20;3.83;;;2.97;;
21814;SDS011;11069;48.988;8.450;2023-04-24T14:27:47;4.45;;;3.08;;
21814;SDS011;11069;48.988;8.450;2023-04-24T14:30:12;3.22;;;2.88;;
21814;SDS011;11069;48.988;8.450;2023-04-24T14:32:38;4.00;;;3.03;;
21814;SDS011;11069;48.988;8.450;2023-04-24T14:35:05;3.67;;;2.88;;
21814;SDS011;11069;48.988;8.450;2023-04-24T14:37:31;3.00;;;2.42;;
21814;SDS011;11069;48.988;8.450;2023-04-24T14:39:57;4.22;;;2.35;;
21814;SDS011;11069;48.988;8.450;2023-04-24T14:42:23;1.98;;;1.70;;
21814;SDS011;11069;48.988;8.450;2023-04-24T14:44:49;3.08;;;1.98;;
21814;SDS011;11069;48.988;8.450;2023-04-24T14:47:15;3.55;;;2.08;;
21814;SDS011;11069;48.988;8.450;2023-04-24T14:49:42;1.75;;;1.60;;
21814;SDS011;11069;48.988;8.450;2023-04-24T14:52:08;1.70;;;1.60;;
21814;SDS011;11069;48.988;8.450;2023-04-24T14:54:35;1.83;;;1.70;;
21814;SDS011;11069;48.988;8.450;2023-04-24T14:57:00;2.58;;;1.70;;
21814;SDS011;11069;48.988;8.450;2023-04-24T14:59:27;3.05;;;1.65;;
21814;SDS011;11069;48.988;8.450;2023-04-24T15:01:53;3.42;;;1.45;;